Aviation Digital Data Service (ADDS)

Output produced by METARs form (0957 UTC 19 January 2019)
found at http://www.aviationweather.gov/metar/data/
 
KAXA 190955Z AUTO 01012G20KT 3SM BR OVC004 M16/M17 A3026 RMK AO2 PWINO
KAMW 190953Z AUTO 01014KT 8SM OVC018 M11/M13 A3018 RMK AO2 SNE18 SLP232 P0000 T11061128
KIKV 190955Z AUTO 6SM -SN SCT005 BKN008 OVC015 M09/M11 A3016 RMK AO2
KAIO 190955Z AUTO 01026KT 10SM OVC016 M12/M14 A3018 RMK AO2
KADU 190955Z AUTO 01013G22KT 10SM OVC018 M12/M14 A3019 RMK AO2
KBRL 190953Z AUTO 04020G29KT 1 1/4SM BR SCT008 OVC026 M04/M07 A2995 RMK AO2 PK WND 03029/0950 SNEMM SLP151 P0000 T10441067 PWINO FZRANO $
KBRL 190940Z 1910/2006 08018G26KT 1SM -SN BR OVC015 
     FM191200 03017G26KT 4SM -SN BKN020 
     FM191500 02018G28KT 6SM BLSN OVC015 
     FM192300 36013KT P6SM SCT025
       
KCIN 190955Z AUTO 7SM -SN CLR M13/M15 A3022 RMK AO2
KCID 190952Z AUTO 04019KT 4SM BR SCT032 OVC065 M08/M09 A3007 RMK AO2 PK WND 03029/0940 UPE03 SLP196 P0000 T10781094
KCID 190936Z 1910/2006 04018G28KT 3SM BLSN SCT015 OVC035 
     FM191300 01018G27KT 4SM BLSN SCT010 BKN020 
     FM192300 35012KT P6SM SCT025
       
KTVK 190935Z AUTO 36022G27KT 10SM -RA OVC009 M07/M07 A3001 RMK AO2
KCNC 190955Z AUTO 01019G24KT 6SM BR OVC012 M08/M09 A3006 RMK AO2 PWINO
KCCY 190955Z AUTO 01015KT 8SM -SN FEW019 BKN055 OVC065 M12/M14 A3021 RMK AO2
KCKP 190935Z AUTO 01013G17KT 10SM BKN065 BKN090 M15/M17 A3029 RMK AO2 T11511174
KICL 190955Z AUTO 01018G23KT 10SM -SN OVC015 M10/M12 A3017 RMK AO2
KCAV 190955Z AUTO 01015G20KT 10SM BKN009 OVC039 M13/M15 A3023 RMK AO2 PWINO
KCWI 190956Z AUTO 03019KT 3SM -SN BR FEW012 BKN030 OVC048 M07/M08 A3006 RMK AO2 PK WND 05028/0912 SLP209 P0000 T10671078 FZRANO
KCBF 190955Z AUTO 10SM OVC014 M12/M12 A3020 RMK AO2
KCSQ 190955Z AUTO 02024G33KT 3SM -SN SCT006 OVC012 M10/M11 A3009 RMK AO2
KDVN 190952Z AUTO 03020KT 1SM -SN BR VV019 M06/M08 A3005 RMK AO2 PK WND 05028/0901 SLP183 P0000 T10611083
KDEH 190955Z AUTO 03008G15KT 7SM -SN SCT009 SCT041 OVC049 M11/M11 A3019 RMK AO2
KDNS 190955Z AUTO 03021G32KT 10SM OVC021 M13/M16 A3024 RMK AO2
KDSM 190954Z 01016G27KT 7SM -SN OVC012 M09/M11 A3013 RMK AO2 PK WND 01027/0947 FZDZE51 SLP219 PRESENT WX DRSN I1000 T10941111 PNO $
KDSM 190931Z 1910/2006 01015G23KT 4SM -FZDZSN BLSN OVC011 
     FM191100 02015G23KT P6SM BKN025 OVC050 
     FM191700 36013KT P6SM BKN035 
     FM200200 36008KT P6SM SCT035
       
KDBQ 190953Z AUTO 03015KT 2SM -SN BR BKN031 OVC065 M09/M11 A3010 RMK AO2 PK WND 03028/0902 SLP214 P0002 T10941111
KDBQ 190937Z 1910/2006 03017G27KT 1SM -SN BR OVC025 
     FM191200 04018G28KT 3SM BLSN SCT025 OVC040 
     FM191500 03017G26KT 5SM BLSN BKN020 
     FM192300 36012KT P6SM SCT025
       
KEST 190952Z AUTO 35016KT 10SM BKN100 M18/M21 A3029 RMK AO2 SLP291 T11831206
KFFL 190955Z AUTO 03022KT 2 1/2SM BR BKN002 BKN013 OVC043 M06/M08 A3001 RMK AO2 PWINO
KFXY 190935Z AUTO 36017KT 10SM BKN043 OVC110 M13/M15 A3024 RMK AO2
KFOD 190956Z AUTO 36014G19KT 7SM -SN OVC032 M14/M16 A3024 RMK AO2 SLP294 P0000 T11391161 FZRANO
KFOD 190540Z 1906/2006 03015KT 5SM BLSN BKN025 OVC060 
     FM190800 02014G22KT P6SM OVC025 
     FM191400 01009KT P6SM BKN045 
     FM200000 36004KT P6SM SCT130
       
KFSW 190955Z AUTO 03014G19KT 3SM -SN BKN013 OVC028 M04/M06 A2996 RMK AO2
KGGI 190955Z AUTO 01018G24KT 7SM SCT001 SCT006 SCT014 M08/M10 A3011 RMK AO2 T10851101
KHPT 190955Z AUTO 01013G18KT 7SM -SN SCT014 OVC036 M11/M15 A3020 RMK AO2
KHNR 190955Z AUTO 10SM -SN CLR M13/M14 A3020 RMK AO2
KIIB 190955Z AUTO 03019G23KT 4SM -SN OVC042 M08/M10 A3014 RMK AO2 T10801097
KIOW 190952Z AUTO 03017G25KT 9SM OVC055 M07/M09 A3008 RMK AO2 PK WND 04029/0920 UPB47E52SNE47 SLP196 P0000 T10671094
KIFA 190955Z AUTO 01015G22KT 10SM -SN OVC028 M10/M12 A3019 RMK AO2 T11041125
KEOK 190955Z AUTO 03012G18KT 3SM -SN OVC010 M03/M04 A2993 RMK AO2
KOXV 190955Z AUTO 01015KT 6SM -SN OVC013 M08/M08 A3008 RMK AO2
KLRJ 190955Z AUTO 35013G19KT 10SM OVC007 M15/M18 A3033 RMK AO2
KMIW 190953Z AUTO 01017G25KT 10SM OVC021 M09/M11 A3014 RMK AO2 PK WND 01026/0906 SLP224 T10941111
KMCW 190953Z AUTO 01017KT 9SM -SN SCT035 OVC110 M14/M16 A3024 RMK AO2 PK WND 02026/0858 SLP262 P0000 T11391156
KMCW 190929Z 1909/2006 02017KT 4SM -SN BR SCT035 OVC050 
     FM191200 36014KT P6SM BKN060 
     FM191600 01013KT P6SM SCT050 
     FM200000 34009KT P6SM FEW250
       
KMPZ 190955Z AUTO 02018G23KT 1 3/4SM -SN OVC012 M04/M04 A2999 RMK AO2
KMUT 190955Z AUTO 03016G25KT 2 1/2SM -SN SCT014 OVC023 M05/M07 A3005 RMK AO2
KTNU 190955Z AUTO 02019G27KT 6SM BR BKN014 OVC019 M09/M10 A3011 RMK AO2
KORC 190955Z AUTO 01013KT 10SM BKN010 BKN019 OVC034 M16/M18 A3031 RMK AO2
KI75 190955Z AUTO 36015G22KT 5SM BR OVC007 M08/M09 A3007 RMK AO2 T10821092
KOOA 190935Z AUTO 03019KT 7SM OVC038 M07/M09 A3005 RMK AO2 T10711087
KOTM 190953Z AUTO 02014KT 10SM BKN015 OVC027 M07/M08 A3005 RMK AO2 UPE0859 SLP186 P0000 T10671083
KOTM 190931Z 1910/2006 03017KT P6SM BKN015 OVC035 
     FM191100 02018G25KT 3SM -FZDZSN BLSN BKN025 OVC035 
     FM191300 01018G26KT 6SM BLSN OVC020 
     FM191700 36017G23KT P6SM BKN025 
     FM200000 34010KT P6SM SCT030
       
KPEA 190955Z AUTO 01017G23KT 10SM BKN015 BKN034 M08/M10 A3011 RMK AO2 T10781100
KPRO 190955Z AUTO 36016KT 10SM OVC020 M11/M13 A3019 RMK AO2 T11111130
KRDK 190955Z AUTO 10SM OVC016 M11/M13 A3018 RMK AO2
KSHL 190955Z AUTO 36014G21KT 10SM FEW009 OVC029 M17/M19 A3030 RMK AO2
KSDA 190955Z AUTO 01017G29KT 10SM OVC015 M11/M13 A3019 RMK AO2
KSUX 190952Z AUTO 35019KT 10SM FEW011 OVC100 M14/M17 A3033 RMK AO2 SLP295 T11391172
KSUX 190522Z 1906/2006 35016G23KT P6SM -SN SCT025 OVC040 
     TEMPO 1906/1907 BKN025 OVC035 
     FM190900 35016G23KT P6SM BKN050 
     FM191300 35012G18KT P6SM SCT100 
     FM191500 35011KT P6SM FEW250 
     FM192300 02006KT P6SM FEW250
       
KSPW 190953Z AUTO 01015G22KT 10SM OVC100 M16/M19 A3029 RMK AO2 UPB0856E07SNE0856 SLP289 P0000 T11611194
KSLB 190955Z AUTO 02016KT 10SM FEW005 BKN029 OVC080 M16/M18 A3024 RMK AO2
KVTI 190955Z AUTO 02012G20KT 7SM -SN OVC034 M08/M11 A3014 RMK AO2 T10851111
KAWG 190955Z AUTO 03019KT 1 3/4SM -SN SCT003 BKN013 OVC044 M07/M06 A3004 RMK AO2
KALO 190954Z AUTO 01013KT 3SM -SN OVC037 M09/M12 A3018 RMK AO2 SLP237 P0001 T10891117
KALO 190929Z 1909/2006 01014KT 4SM -SN BR OVC035 
     FM191200 01015KT P6SM BKN030 
     FM191600 01014KT P6SM SCT040 
     FM200200 36007KT P6SM SCT045
       
KEBS 190935Z AUTO 01021KT 10SM -SN OVC026 M12/M15 A3019 RMK AO2